Oval Lp No.11 — JL6306 — position and weather

sailwx.info

Track history (hours):
 
Tides and Currents Weather Stations Pressure Air Temp Water Temp Dewpoint Dewpoint Depression Visibility Wind Speed Wind Dir Waves Ship Positions

Oval Lp No.11

Last reported at 2016-Sep-26 02:33 UTC. Time now 2016-Sep-26 08:52 UTC.
Position N 35°33' E 140°04'.

Length 67 m; draft 3.6 m.

Type: Ship (hazmat cat A). MMSI: 431500366.

Date/timePositionNaut miles runAvg speedWind from/ knotsBaromVisibWave heightAir tempDewpointWater temp
2016-Sep-26 02:33N 35°33' E 140°04'1 1.4
2016-Sep-26 01:31N 35°33' E 140°05'0 0.0
2016-Sep-26 00:28N 35°33' E 140°05'6 2.1
2016-Sep-25 21:34N 35°31' E 139°58'3 0.8
2016-Sep-25 17:32N 35°29' E 139°55'0 0.0
2016-Sep-25 16:32N 35°29' E 139°55'0 0.0
2016-Sep-25 15:32N 35°29' E 139°55'0 0.0
2016-Sep-25 14:32N 35°29' E 139°55'14 7.0
2016-Sep-25 12:33N 35°17' E 139°45'1111.0
2016-Sep-25 11:34N 35°06' E 139°44'240 9.6
2016-Sep-24 10:32N 34°14' E 134°59'1211.6
2016-Sep-24 09:32N 34°25' E 135°05'13 2.2
2016-Sep-24 03:33N 34°32' E 135°18'1211.9
2016-Sep-24 02:33N 34°24' E 135°07'1111.3
2016-Sep-24 01:33N 34°15' E 134°60'1211.9
2016-Sep-24 00:33N 34°03' E 135°01'  
2016-Sep-21 05:33N 34°18' E 134°59'2412.0
2016-Sep-21 03:33N 34°36' E 135°18'5 4.9
2016-Sep-21 02:33N 34°40' E 135°22'0 0.0
2016-Sep-20 17:33N 34°40' E 135°22'0 0.0
2016-Sep-20 14:21N 34°40' E 135°22'0 0.0
2016-Sep-20 13:33N 34°40' E 135°22'0 0.0
2016-Sep-20 10:33N 34°40' E 135°22'0 0.0
2016-Sep-20 08:21N 34°40' E 135°22'0 0.1
2016-Sep-20 07:33N 34°40' E 135°22'0 0.0
2016-Sep-20 06:21N 34°40' E 135°22'0 0.0
2016-Sep-20 02:33N 34°40' E 135°22'0 0.0
2016-Sep-19 23:33N 34°40' E 135°22'0 0.0
2016-Sep-19 19:27N 34°40' E 135°22'0 0.0
2016-Sep-19 16:27N 34°40' E 135°22'0 0.0
2016-Sep-19 14:33N 34°40' E 135°22'0 0.0
2016-Sep-19 13:33N 34°40' E 135°22'0 0.0
2016-Sep-19 12:33N 34°40' E 135°22'0 0.0
2016-Sep-19 11:33N 34°40' E 135°22'0 0.0
2016-Sep-19 09:33N 34°40' E 135°22'0 0.0
2016-Sep-19 07:33N 34°40' E 135°22'0 0.0
2016-Sep-19 06:24N 34°40' E 135°22'4 1.2
2016-Sep-19 03:33N 34°36' E 135°23'3 0.9
2016-Sep-19 00:07N 34°34' E 135°26'33 0.8
2016-Sep-17 05:33N 34°09' E 134°59'1412.6
2016-Sep-17 04:28N 34°23' E 135°02'21 2.0
2016-Sep-16 17:31N 34°36' E 135°23'0 0.0
2016-Sep-16 15:32N 34°36' E 135°23'0 0.0
2016-Sep-16 12:33N 34°36' E 135°23'3411.3
2016-Sep-16 09:34N 34°07' E 135°01'  
Track history (hours):
 
Tides and Currents Weather Stations Pressure Air Temp Water Temp Dewpoint Dewpoint Depression Visibility Wind Speed Wind Dir Waves Ship Positions

Oval Lp No.11

Last reported at 2016-Sep-26 02:33 UTC. Time now 2016-Sep-26 08:52 UTC.
Position N 35°33' E 140°04'.

Length 67 m; draft 3.6 m.

Type: Ship (hazmat cat A). MMSI: 431500366.

Date/timePositionNaut miles runAvg speedWind from/ knotsBaromVisibWave heightAir tempDewpointWater temp
2016-Sep-26 02:33N 35°33' E 140°04'1 1.4
2016-Sep-26 01:31N 35°33' E 140°05'0 0.0
2016-Sep-26 00:28N 35°33' E 140°05'6 2.1
2016-Sep-25 21:34N 35°31' E 139°58'3 0.8
2016-Sep-25 17:32N 35°29' E 139°55'0 0.0
2016-Sep-25 16:32N 35°29' E 139°55'0 0.0
2016-Sep-25 15:32N 35°29' E 139°55'0 0.0
2016-Sep-25 14:32N 35°29' E 139°55'14 7.0
2016-Sep-25 12:33N 35°17' E 139°45'1111.0
2016-Sep-25 11:34N 35°06' E 139°44'240 9.6
2016-Sep-24 10:32N 34°14' E 134°59'1211.6
2016-Sep-24 09:32N 34°25' E 135°05'13 2.2
2016-Sep-24 03:33N 34°32' E 135°18'1211.9
2016-Sep-24 02:33N 34°24' E 135°07'1111.3
2016-Sep-24 01:33N 34°15' E 134°60'1211.9
2016-Sep-24 00:33N 34°03' E 135°01'  
2016-Sep-21 05:33N 34°18' E 134°59'2412.0
2016-Sep-21 03:33N 34°36' E 135°18'5 4.9
2016-Sep-21 02:33N 34°40' E 135°22'0 0.0
2016-Sep-20 17:33N 34°40' E 135°22'0 0.0
2016-Sep-20 14:21N 34°40' E 135°22'0 0.0
2016-Sep-20 13:33N 34°40' E 135°22'0 0.0
2016-Sep-20 10:33N 34°40' E 135°22'0 0.0
2016-Sep-20 08:21N 34°40' E 135°22'0 0.1
2016-Sep-20 07:33N 34°40' E 135°22'0 0.0
2016-Sep-20 06:21N 34°40' E 135°22'0 0.0
2016-Sep-20 02:33N 34°40' E 135°22'0 0.0
2016-Sep-19 23:33N 34°40' E 135°22'0 0.0
2016-Sep-19 19:27N 34°40' E 135°22'0 0.0
2016-Sep-19 16:27N 34°40' E 135°22'0 0.0
2016-Sep-19 14:33N 34°40' E 135°22'0 0.0
2016-Sep-19 13:33N 34°40' E 135°22'0 0.0
2016-Sep-19 12:33N 34°40' E 135°22'0 0.0
2016-Sep-19 11:33N 34°40' E 135°22'0 0.0
2016-Sep-19 09:33N 34°40' E 135°22'0 0.0
2016-Sep-19 07:33N 34°40' E 135°22'0 0.0
2016-Sep-19 06:24N 34°40' E 135°22'4 1.2
2016-Sep-19 03:33N 34°36' E 135°23'3 0.9
2016-Sep-19 00:07N 34°34' E 135°26'33 0.8
2016-Sep-17 05:33N 34°09' E 134°59'1412.6
2016-Sep-17 04:28N 34°23' E 135°02'21 2.0
2016-Sep-16 17:31N 34°36' E 135°23'0 0.0
2016-Sep-16 15:32N 34°36' E 135°23'0 0.0
2016-Sep-16 12:33N 34°36' E 135°23'3411.3
2016-Sep-16 09:34N 34°07' E 135°01'  

Dump ship's entire track history